Latest Weather Observations for Mount Nowa Nowa

IDV60801

Issued at 12:35 pm EST Monday 21 April 2014 (issued every 30 minutes, with the page automatically refreshed every 10 minutes)

About weather observations | Map of weather stations | Latest weather observations for VIC | Other Formats
Station Details ID: 084144 Name: MOUNT NOWA NOWA Lat: -37.69 Lon: 148.09 Height: 350.0 m
Data from the previous 72 hours. | See also: Recent months at Mount Nowa Nowa
Date/Time
EST
Temp
°C
App
Temp
°C
Dew
Point
Rel
Hum
%
Delta-T
°C
Wind Press
QNH
hPa
Press
MSL
hPa
Rain
since 9 am
mm
Dir
 
Spd
km/h
Gust
km/h
Spd
kts
Gust
kts
21/12:30pm 14.8 12.4 7.1 60 3.8 NNW 9 17 5 9 - - 0.0
21/12:00pm 14.4 12.5 7.5 63 3.5 N 7 15 4 8 - - 0.0
21/11:30am 13.6 10.7 6.5 62 3.5 NNW 11 20 6 11 - - 0.0
21/11:00am 13.5 10.1 5.9 60 3.7 NNW 13 26 7 14 - - 0.0
21/10:30am 12.5 8.6 5.2 61 3.4 NNW 15 30 8 16 - - 0.0
21/10:00am 11.8 7.8 4.8 62 3.3 NNW 15 24 8 13 - - 0.0
21/09:30am 10.8 5.9 4.3 64 3.0 NNW 19 28 10 15 - - 0.0
21/09:00am 10.2 5.6 3.9 65 2.8 NNW 17 28 9 15 - - 0.0
21/08:30am 10.0 5.0 3.5 64 2.9 N 19 30 10 16 - - 0.0
21/08:00am 9.4 4.7 3.4 66 2.7 N 17 28 9 15 - - 0.0
21/07:30am 8.6 3.9 3.0 68 2.4 N 17 28 9 15 - - 0.0
21/07:00am 8.5 3.8 2.9 68 2.4 N 17 26 9 14 - - 0.0
21/06:30am 8.2 3.5 3.1 70 2.2 N 17 26 9 14 - - 0.0
21/06:00am 8.4 3.3 3.1 69 2.3 NNW 19 28 10 15 - - 0.0
21/05:30am 8.4 3.3 3.1 69 2.3 N 19 28 10 15 - - 0.0
21/05:00am 8.5 3.8 3.1 69 2.3 N 17 28 9 15 - - 0.0
21/04:30am 8.4 3.7 3.1 69 2.3 N 17 30 9 16 - - 0.0
21/04:00am 8.7 4.0 3.1 68 2.4 N 17 26 9 14 - - 0.0
21/03:30am 8.7 3.6 3.1 68 2.4 N 19 30 10 16 - - 0.0
21/03:00am 8.9 3.8 3.1 67 2.5 N 19 26 10 14 - - 0.0
21/02:30am 9.0 4.7 3.0 66 2.6 N 15 26 8 14 - - 0.0
21/02:00am 9.1 4.8 3.1 66 2.6 NNW 15 24 8 13 - - 0.0
21/01:30am 9.2 4.5 3.2 66 2.6 NNW 17 24 9 13 - - 0.0
21/01:00am 9.4 4.7 3.4 66 2.7 NNW 17 26 9 14 - - 0.0
21/12:30am 9.7 5.0 3.2 64 2.9 NNW 17 24 9 13 - - 0.0
21/12:00am 10.0 5.7 3.3 63 3.0 NNW 15 22 8 12 - - 0.0
 
Date/Time
EST
Temp
°C
App
Temp
°C
Dew
Point
Rel
Hum
%
Delta-T
°C
Wind Press
QNH
hPa
Press
MSL
hPa
Rain
since 9 am
mm
Dir
 
Spd
km/h
Gust
km/h
Spd
kts
Gust
kts
20/11:30pm 10.2 5.5 3.3 62 3.1 NNW 17 22 9 12 - - 0.0
20/11:00pm 10.2 6.4 3.9 65 2.8 NNW 13 22 7 12 - - 0.0
20/10:30pm 10.1 6.8 4.5 68 2.6 NNW 11 19 6 10 - - 0.0
20/10:00pm 10.6 7.3 4.5 66 2.8 NW 11 19 6 10 - - 0.0
20/09:30pm 10.7 7.3 4.2 64 3.0 NW 11 15 6 8 - - 0.0
20/09:00pm 10.6 7.3 4.5 66 2.8 NW 11 13 6 7 - - 0.0
20/08:30pm 11.0 7.7 4.7 65 2.9 NW 11 15 6 8 - - 0.0
20/08:00pm 11.4 7.7 4.6 63 3.1 NW 13 17 7 9 - - 0.0
20/07:30pm 11.1 8.5 4.3 63 3.1 WNW 7 11 4 6 - - 0.0
20/07:00pm 11.4 9.0 4.4 62 3.2 WNW 6 9 3 5 - - 0.0
20/06:30pm 11.6 8.6 4.3 61 3.4 W 9 13 5 7 - - 0.0
20/06:00pm 11.9 8.9 3.9 58 3.7 W 9 13 5 7 - - 0.0
20/05:30pm 12.2 9.6 4.4 59 3.6 W 7 13 4 7 - - 0.0
20/05:00pm 12.4 9.4 4.1 57 3.8 W 9 15 5 8 - - 0.0
20/04:30pm 12.8 10.3 5.0 59 3.7 W 7 17 4 9 - - 0.0
20/04:00pm 13.2 10.3 4.4 55 4.1 W 9 20 5 11 - - 0.0
20/03:30pm 13.4 11.0 5.3 58 3.9 W 7 13 4 7 - - 0.0
20/03:00pm 13.1 10.7 5.3 59 3.7 W 7 11 4 6 - - 0.0
20/02:30pm 13.2 10.6 4.4 55 4.1 W 7 17 4 9 - - 0.0
20/02:00pm 13.6 10.7 4.5 54 4.3 WSW 9 19 5 10 - - 0.0
20/01:30pm 13.5 11.2 5.7 59 3.7 W 7 19 4 10 - - 0.0
20/01:00pm 13.1 10.7 5.3 59 3.7 W 7 13 4 7 - - 0.0
20/12:30pm 13.2 11.3 6.8 65 3.1 W 6 11 3 6 - - 0.0
20/12:00pm 13.1 11.0 6.5 64 3.2 W 7 17 4 9 - - 0.0
20/11:30am 12.8 11.3 7.0 68 2.9 W 4 7 2 4 - - 0.0
20/11:00am 12.4 10.9 6.9 69 2.7 W 4 7 2 4 - - 0.0
20/10:30am 11.5 10.0 7.0 74 2.2 WNW 4 7 2 4 - - 0.0
20/10:00am 10.4 8.5 6.9 79 1.7 NW 6 7 3 4 - - 0.0
20/09:30am 9.4 6.9 6.7 83 1.3 NNW 9 15 5 8 - - 0.0
20/09:00am 8.6 6.4 6.4 86 1.0 NNW 7 13 4 7 - - 0.0
20/08:30am 8.4 5.8 6.2 86 1.0 NNW 9 17 5 9 - - 0.0
20/08:00am 8.6 6.0 6.2 85 1.1 NNW 9 15 5 8 - - 0.0
20/07:30am 8.7 6.6 6.7 87 0.9 NNW 7 11 4 6 - - 0.0
20/07:00am 8.2 5.7 6.7 90 0.7 NNW 9 13 5 7 - - 0.0
20/06:30am 7.7 5.2 6.5 92 0.6 NNW 9 15 5 8 - - 0.0
20/06:00am 8.3 6.3 6.9 91 0.7 NW 7 11 4 6 - - 0.0
20/05:30am 8.7 6.7 7.0 89 0.8 NNW 7 11 4 6 - - 0.0
20/05:00am 9.1 7.1 6.9 86 1.0 NNW 7 11 4 6 - - 0.0
20/04:30am 9.6 7.8 7.0 84 1.2 WNW 6 7 3 4 - - 0.0
20/04:00am 9.3 6.9 6.9 85 1.1 NNW 9 13 5 7 - - 0.0
20/03:30am 9.2 6.8 7.0 86 1.1 NNW 9 15 5 8 - - 0.0
20/03:00am 9.5 7.5 7.1 85 1.2 NNW 7 11 4 6 - - 0.0
20/02:30am 9.7 8.6 6.8 82 1.4 W 2 6 1 3 - - 0.0
20/02:00am 9.6 8.2 7.4 86 1.1 WNW 4 11 2 6 - - 0.0
20/01:30am 9.4 7.7 7.5 88 0.9 WNW 6 9 3 5 - - 0.0
20/01:00am 9.3 7.9 7.3 87 1.0 WNW 4 7 2 4 - - 0.0
20/12:30am 9.4 7.5 7.5 88 0.9 W 7 9 4 5 - - 0.0
20/12:00am 9.2 7.3 7.5 89 0.8 W 7 9 4 5 - - 0.0
 
Date/Time
EST
Temp
°C
App
Temp
°C
Dew
Point
Rel
Hum
%
Delta-T
°C
Wind Press
QNH
hPa
Press
MSL
hPa
Rain
since 9 am
mm
Dir
 
Spd
km/h
Gust
km/h
Spd
kts
Gust
kts
19/11:30pm 9.3 7.4 7.6 89 0.8 W 7 11 4 6 - - 0.0
19/11:00pm 9.1 6.9 7.7 91 0.7 W 9 11 5 6 - - 0.0
19/10:30pm 9.0 7.8 7.9 93 0.5 WNW 4 7 2 4 - - 0.0
19/10:00pm 9.5 7.8 8.4 93 0.5 NW 7 9 4 5 - - 0.0
19/09:30pm 9.3 7.8 8.4 94 0.4 WNW 6 9 3 5 - - 0.0
19/09:00pm 9.5 8.0 8.4 93 0.5 W 6 7 3 4 - - 0.0
19/08:30pm 9.6 8.5 8.4 92 0.6 WNW 4 6 2 3 - - 0.0
19/08:00pm 9.7 9.0 8.5 92 0.6 WNW 2 6 1 3 - - 0.0
19/07:30pm 9.8 8.7 8.4 91 0.7 W 4 4 2 2 - - 0.0
19/07:00pm 9.8 8.7 8.4 91 0.7 WSW 4 6 2 3 - - 0.0
19/06:30pm 10.2 9.2 8.8 91 0.7 SSW 4 7 2 4 - - 0.0
19/06:00pm 10.7 9.7 9.0 89 0.9 SSW 4 7 2 4 - - 0.0
19/05:30pm 11.0 10.0 8.9 87 1.1 S 4 7 2 4 - - 0.0
19/05:00pm 11.2 9.6 8.6 84 1.3 S 7 13 4 7 - - 0.0
19/04:30pm 12.0 10.8 8.1 77 2.0 WSW 4 9 2 5 - - 0.0
19/04:00pm 12.6 11.0 7.9 73 2.4 WSW 6 15 3 8 - - 0.0
19/03:30pm 12.9 11.2 8.4 74 2.3 WSW 7 15 4 8 - - 0.0
19/03:00pm 12.6 10.8 7.9 73 2.4 W 7 15 4 8 - - 0.0
19/02:30pm 12.4 10.1 7.5 72 2.4 W 9 24 5 13 - - 0.0
19/02:00pm 13.3 10.8 6.4 63 3.4 W 9 22 5 12 - - 0.0
19/01:30pm 14.0 11.6 6.8 62 3.6 W 9 19 5 10 - - 0.0
19/01:00pm 11.9 9.9 7.2 73 2.3 W 7 19 4 10 - - 0.0
19/12:30pm 12.4 10.4 7.1 70 2.6 W 7 17 4 9 - - 0.0
19/12:00pm 12.7 10.9 7.8 72 2.4 W 7 19 4 10 - - 0.0
19/11:30am 11.8 9.5 7.3 74 2.2 W 9 22 5 12 - - 0.0
19/11:00am 12.9 10.6 7.4 69 2.7 W 9 20 5 11 - - 0.0
19/10:30am 12.1 9.3 7.0 71 2.5 W 11 26 6 14 - - 0.0
19/10:00am 11.0 8.3 7.5 79 1.7 W 11 22 6 12 - - 0.0
19/09:30am 10.6 7.5 7.1 79 1.7 W 13 24 7 13 - - 0.0
19/09:00am 10.6 8.3 7.3 80 1.6 W 9 19 5 10 - - 2.4
19/08:30am 9.9 7.1 7.0 82 1.4 W 11 20 6 11 - - 2.4
19/08:00am 9.5 7.1 6.8 83 1.3 W 9 15 5 8 - - 2.4
19/07:30am 9.1 6.2 6.5 84 1.2 W 11 22 6 12 - - 2.4
19/07:00am 8.9 6.0 6.5 85 1.1 W 11 19 6 10 - - 2.4
19/06:30am 8.8 6.3 6.4 85 1.1 W 9 19 5 10 - - 2.4
19/06:00am 8.8 5.9 6.4 85 1.1 W 11 19 6 10 - - 2.4
19/05:30am 8.8 6.3 6.4 85 1.1 W 9 20 5 11 - - 2.4
19/05:00am 8.7 5.8 6.3 85 1.1 W 11 19 6 10 - - 2.4
19/04:30am 8.6 5.7 6.4 86 1.0 W 11 20 6 11 - - 2.4
19/04:00am 8.6 5.3 6.4 86 1.0 W 13 24 7 13 - - 2.4
19/03:30am 8.7 5.0 6.3 85 1.1 W 15 22 8 12 - - 2.4
19/03:00am 8.5 5.2 6.3 86 1.0 W 13 20 7 11 - - 2.4
19/02:30am 8.4 5.1 6.2 86 1.0 W 13 26 7 14 - - 2.4
19/02:00am 8.7 5.0 6.3 85 1.1 W 15 30 8 16 - - 2.4
19/01:30am 8.8 5.4 6.1 83 1.3 W 13 24 7 13 - - 2.4
19/01:00am 8.6 5.2 6.1 84 1.2 W 13 22 7 12 - - 2.4
19/12:30am 8.7 5.4 6.2 84 1.2 W 13 26 7 14 - - 2.4
19/12:00am 8.9 5.6 6.2 83 1.3 W 13 24 7 13 - - 2.4
 
Date/Time
EST
Temp
°C
App
Temp
°C
Dew
Point
Rel
Hum
%
Delta-T
°C
Wind Press
QNH
hPa
Press
MSL
hPa
Rain
since 9 am
mm
Dir
 
Spd
km/h
Gust
km/h
Spd
kts
Gust
kts
18/11:30pm 9.1 5.8 6.2 82 1.4 W 13 20 7 11 - - 2.4
18/11:00pm 9.1 6.1 6.2 82 1.4 W 11 20 6 11 - - 2.4
18/10:30pm 9.3 6.4 6.4 82 1.4 W 11 20 6 11 - - 2.4
18/10:00pm 9.6 6.7 6.7 82 1.4 W 11 19 6 10 - - 2.4
18/09:30pm 10.1 6.9 7.0 81 1.5 W 13 24 7 13 - - 2.4
18/09:00pm 10.0 7.3 7.4 84 1.3 W 11 19 6 10 - - 2.4
18/08:30pm 10.3 6.8 7.2 81 1.5 W 15 24 8 13 - - 2.4
18/08:00pm 10.6 8.0 7.7 82 1.4 W 11 28 6 15 - - 2.4
18/07:30pm 10.5 7.6 8.1 85 1.2 W 13 26 7 14 - - 2.4
18/07:00pm 10.7 8.3 8.6 87 1.1 W 11 30 6 16 - - 2.4
18/06:30pm 10.8 8.0 8.7 87 1.1 W 13 26 7 14 - - 2.4
18/06:00pm 10.7 8.5 9.5 92 0.6 W 11 19 6 10 - - 2.4
18/05:30pm 10.8 8.8 10.2 96 0.3 W 11 22 6 12 - - 2.4
18/05:00pm 10.9 8.6 10.6 98 0.2 W 13 26 7 14 - - 2.4
18/04:30pm 11.2 9.4 10.9 98 0.2 W 11 26 6 14 - - 2.4
18/04:00pm 11.3 9.2 11.0 98 0.2 W 13 28 7 15 - - 2.4
18/03:30pm 11.2 8.6 10.7 97 0.3 W 15 28 8 15 - - 2.2
18/03:00pm 11.4 8.0 10.6 95 0.4 W 19 35 10 19 - - 1.6
18/02:30pm 13.2 10.9 11.8 91 0.8 W 15 33 8 18 - - 1.0
18/02:00pm 15.4 12.6 11.4 77 2.2 WSW 17 35 9 19 - - 0.0
18/01:30pm 19.1 15.8 8.1 49 5.8 W 15 30 8 16 - - 0.0
18/01:00pm 18.9 16.6 9.1 53 5.2 WNW 11 19 6 10 - - 0.0

Other Formats:

Comma delimited format used in spreadsheet applications
http://www.bom.gov.au/fwo/IDV60801/IDV60801.94930.axf

JavaScript Object Notation format (JSON) in row-major order
http://www.bom.gov.au/fwo/IDV60801/IDV60801.94930.json